Latest Weather Observations for Cape Willoughby

IDS60801

Issued at 2:02 pm CDT Saturday 20 December 2014 (issued every 30 minutes, with the page automatically refreshed every 10 minutes)

About weather observations | Map of weather stations | Latest weather observations for SA | Other Formats
Station Details ID: 022803 Name: CAPE WILLOUGHBY Lat: -35.84 Lon: 138.13 Height: 55.0 m
Data from the previous 72 hours. | See also: Recent months at Cape Willoughby
Date/Time
CDT
Temp
°C
App
Temp
°C
Dew
Point
Rel
Hum
%
Delta-T
°C
Wind Press
QNH
hPa
Press
MSL
hPa
Rain
since 9 am
mm
Dir
 
Spd
km/h
Gust
km/h
Spd
kts
Gust
kts
20/02:00pm 19.3 17.1 13.3 68 3.4 ESE 17 20 9 11 1018.0 1017.9 0.0
20/01:30pm 19.5 17.1 12.8 65 3.8 ESE 17 22 9 12 1018.5 1018.4 0.0
20/01:00pm 19.6 17.2 12.6 64 3.9 ESE 17 22 9 12 1019.0 1018.9 0.0
20/12:30pm 19.7 17.4 12.9 65 3.8 ESE 17 22 9 12 1019.2 1019.1 0.0
20/12:00pm 19.3 16.2 11.6 61 4.2 ESE 19 24 10 13 1019.4 1019.3 0.0
20/11:30am 19.4 17.1 11.7 61 4.2 ESE 15 20 8 11 1019.6 1019.5 0.0
20/11:00am 19.5 17.5 11.5 60 4.4 ESE 13 20 7 11 1019.8 1019.7 0.0
20/10:30am 19.2 17.6 11.7 62 4.1 ESE 11 17 6 9 1020.1 1019.9 0.0
20/10:00am 18.9 16.9 11.5 62 4.1 ESE 13 17 7 9 1020.2 1020.0 0.0
20/09:30am 18.4 16.3 11.0 62 4.0 E 13 15 7 8 1020.5 1020.4 0.0
20/09:00am 17.6 15.9 11.2 66 3.5 E 11 15 6 8 1020.6 1020.5 0.0
20/08:30am 17.3 16.0 11.1 67 3.3 E 9 17 5 9 1020.2 1020.0 0.0
20/08:00am 17.5 16.2 11.1 66 3.5 ENE 9 13 5 7 1020.1 1019.9 0.0
20/07:30am 16.8 15.8 10.9 68 3.2 E 7 13 4 7 1019.7 1019.6 0.0
20/07:00am 15.9 14.9 11.1 73 2.6 E 7 11 4 6 1019.5 1019.4 0.0
20/06:30am 15.6 14.7 11.2 75 2.4 ENE 7 11 4 6 1019.4 1019.3 0.0
20/06:00am 15.3 13.8 10.7 74 2.4 ESE 9 13 5 7 1019.0 1018.9 0.0
20/05:30am 15.2 13.3 10.6 74 2.4 ESE 11 15 6 8 1018.9 1018.8 0.0
20/05:00am 15.2 12.9 10.6 74 2.4 SE 13 17 7 9 1018.5 1018.4 0.0
20/04:30am 15.3 13.1 10.7 74 2.4 ESE 13 19 7 10 1018.3 1018.2 0.0
20/04:00am 15.2 12.5 10.4 73 2.5 SE 15 17 8 9 1018.4 1018.3 0.0
20/03:30am 15.3 12.6 10.5 73 2.5 SE 15 20 8 11 1018.5 1018.4 0.0
20/03:00am 15.3 13.0 10.3 72 2.6 SE 13 17 7 9 1018.8 1018.7 0.0
20/02:30am 15.6 13.3 10.6 72 2.6 SE 13 20 7 11 1019.1 1019.0 0.0
20/02:00am 15.6 12.9 10.2 70 2.8 SSE 15 22 8 12 1019.6 1019.5 0.0
20/01:30am 15.7 13.0 10.2 70 2.9 SE 15 20 8 11 1020.1 1019.9 0.0
20/01:00am 15.8 13.2 10.6 71 2.8 SSE 15 22 8 12 1020.5 1020.4 0.0
20/12:30am 15.9 13.2 10.4 70 2.9 SSE 15 22 8 12 1020.6 1020.5 0.0
20/12:00am 16.0 13.3 10.5 70 2.9 SSE 15 26 8 14 1020.9 1020.8 0.0
 
Date/Time
CDT
Temp
°C
App
Temp
°C
Dew
Point
Rel
Hum
%
Delta-T
°C
Wind Press
QNH
hPa
Press
MSL
hPa
Rain
since 9 am
mm
Dir
 
Spd
km/h
Gust
km/h
Spd
kts
Gust
kts
19/11:30pm 16.0 13.4 10.7 71 2.8 SSE 15 22 8 12 1021.1 1021.0 0.0
19/11:00pm 16.0 12.4 10.5 70 2.9 S 20 24 11 13 1021.3 1021.2 0.0
19/10:30pm 15.9 12.5 10.4 70 2.9 SSE 19 24 10 13 1021.3 1021.2 0.0
19/10:00pm 16.1 12.6 10.8 71 2.8 S 20 26 11 14 1021.4 1021.3 0.0
19/09:30pm 16.0 12.4 10.5 70 2.9 S 20 26 11 14 1021.4 1021.3 0.0
19/09:00pm 15.9 12.2 10.0 68 3.1 S 20 28 11 15 1021.2 1021.1 0.0
19/08:30pm 16.1 12.5 10.4 69 3.0 S 20 28 11 15 1021.1 1021.0 0.0
19/08:00pm 16.2 12.6 10.5 69 3.0 S 20 28 11 15 1021.2 1021.1 0.0
19/07:30pm 16.3 12.7 10.4 68 3.1 S 20 28 11 15 1021.2 1021.1 0.0
19/07:00pm 16.3 12.2 10.2 67 3.2 S 22 30 12 16 1021.0 1020.9 0.0
19/06:30pm 16.5 12.9 10.4 67 3.2 S 20 28 11 15 1020.9 1020.8 0.0
19/06:00pm 17.0 13.1 10.8 67 3.3 S 22 30 12 16 1020.7 1020.6 0.0
19/05:30pm 16.8 13.1 10.2 65 3.5 S 20 28 11 15 1020.6 1020.5 0.0
19/05:00pm 17.1 13.7 10.5 65 3.5 S 19 28 10 15 1020.6 1020.5 0.0
19/04:30pm 16.9 13.0 9.6 62 3.8 S 20 26 11 14 1020.7 1020.6 0.0
19/04:00pm 17.2 13.0 9.6 61 4.0 S 22 28 12 15 1020.8 1020.7 0.0
19/03:30pm 17.2 12.8 9.1 59 4.2 S 22 28 12 15 1020.8 1020.7 0.0
19/03:00pm 17.1 12.8 9.3 60 4.1 S 22 30 12 16 1021.0 1020.9 0.0
19/02:30pm 17.2 12.9 9.4 60 4.1 S 22 28 12 15 1021.0 1020.9 0.0
19/02:00pm 16.9 12.8 8.6 58 4.3 S 20 28 11 15 1021.0 1020.9 0.0
19/01:30pm 17.1 12.5 9.8 62 3.8 S 24 32 13 17 1021.0 1020.9 0.0
19/01:00pm 17.0 12.4 9.7 62 3.8 S 24 32 13 17 1021.1 1021.0 0.0
19/12:30pm 16.9 12.5 8.8 59 4.2 S 22 28 12 15 1021.2 1021.1 0.0
19/12:00pm 17.3 13.4 9.5 60 4.1 S 20 28 11 15 1021.2 1021.1 0.0
19/11:30am 17.0 13.4 9.7 62 3.8 S 19 24 10 13 1021.4 1021.3 0.0
19/11:00am 16.8 13.1 9.5 62 3.8 S 19 26 10 14 1021.4 1021.3 0.0
19/10:30am 16.8 13.4 9.2 61 3.9 S 17 20 9 11 1021.3 1021.2 0.0
19/10:00am 16.7 13.6 8.9 60 4.0 S 15 20 8 11 1021.1 1021.0 0.0
19/09:30am 16.4 12.9 8.9 61 3.9 S 17 20 9 11 1020.8 1020.7 0.0
19/09:00am 16.3 12.7 8.5 60 4.0 S 17 22 9 12 1020.5 1020.4 0.4
19/08:30am 16.1 13.0 8.8 62 3.7 S 15 22 8 12 1020.1 1019.9 0.4
19/08:00am 16.1 13.0 8.8 62 3.7 S 15 22 8 12 1019.6 1019.5 0.4
19/07:30am 15.4 11.4 8.9 65 3.3 S 20 26 11 14 1019.1 1019.0 0.4
19/07:00am 15.3 11.5 9.0 66 3.2 SSW 19 24 10 13 1018.8 1018.7 0.4
19/06:30am 14.3 12.0 8.9 70 2.7 SW 11 17 6 9 1018.5 1018.4 0.4
19/06:00am 14.9 11.4 8.6 66 3.2 SSW 17 22 9 12 1018.3 1018.2 0.4
19/05:30am 15.0 11.4 8.3 64 3.4 SSW 17 22 9 12 1018.2 1018.1 0.4
19/05:00am 15.0 12.4 9.4 69 2.9 SSW 13 20 7 11 1018.2 1018.1 0.4
19/04:30am 15.2 12.5 10.2 72 2.6 SSW 15 24 8 13 1017.8 1017.7 0.4
19/04:00am 14.9 10.8 8.6 66 3.2 SSW 20 24 11 13 1017.7 1017.6 0.4
19/03:30am 14.9 10.7 8.4 65 3.3 SSW 20 28 11 15 1017.5 1017.4 0.4
19/03:00am 15.0 10.4 8.3 64 3.4 SSW 22 30 12 16 1017.6 1017.5 0.4
19/02:30am 15.1 10.4 7.9 62 3.6 SSW 22 32 12 17 1017.7 1017.6 0.4
19/02:00am 15.3 11.7 8.5 64 3.5 S 17 24 9 13 1017.8 1017.7 0.4
19/01:30am 15.2 10.4 8.7 65 3.3 SSW 24 32 13 17 1018.0 1017.9 0.4
19/01:00am 15.4 11.0 9.1 66 3.2 S 22 28 12 15 1018.0 1017.9 0.4
19/12:30am 15.4 10.8 8.2 62 3.6 SSW 22 32 12 17 1017.8 1017.7 0.4
19/12:00am 15.3 11.7 9.7 69 2.9 S 19 30 10 16 1017.7 1017.6 0.4
 
Date/Time
CDT
Temp
°C
App
Temp
°C
Dew
Point
Rel
Hum
%
Delta-T
°C
Wind Press
QNH
hPa
Press
MSL
hPa
Rain
since 9 am
mm
Dir
 
Spd
km/h
Gust
km/h
Spd
kts
Gust
kts
18/11:30pm 15.8 11.9 9.5 66 3.3 SSW 20 28 11 15 1017.5 1017.4 0.4
18/11:00pm 15.6 11.6 8.1 61 3.8 S 19 26 10 14 1017.4 1017.3 0.4
18/10:30pm 15.8 11.4 8.8 63 3.6 S 22 32 12 17 1017.4 1017.3 0.4
18/10:00pm 16.0 10.8 9.0 63 3.6 SSW 26 32 14 17 1017.2 1017.1 0.4
18/09:30pm 15.7 10.3 8.0 60 3.9 SSW 26 32 14 17 1016.8 1016.7 0.4
18/09:00pm 15.7 9.9 8.0 60 3.9 SSW 28 37 15 20 1016.5 1016.4 0.4
18/08:30pm 15.9 10.4 9.1 64 3.5 SSW 28 37 15 20 1016.3 1016.2 0.4
18/08:00pm 16.0 11.2 9.0 63 3.6 SSW 24 35 13 19 1016.2 1016.1 0.4
18/07:30pm 16.2 10.2 10.1 67 3.2 SSW 32 43 17 23 1015.4 1015.3 0.4
18/07:00pm 16.6 11.0 8.8 60 4.0 SSW 28 35 15 19 1015.2 1015.1 0.4
18/06:30pm 17.3 11.3 8.7 57 4.4 SW 30 37 16 20 1014.9 1014.8 0.4
18/06:00pm 17.4 10.8 8.5 56 4.6 SSW 33 46 18 25 1014.6 1014.5 0.4
18/05:30pm 17.5 10.5 8.6 56 4.6 SW 35 44 19 24 1014.3 1014.2 0.4
18/05:00pm 17.8 11.2 9.9 60 4.2 SW 35 44 19 24 1014.0 1013.9 0.4
18/04:30pm 18.1 10.5 9.2 56 4.7 SW 39 50 21 27 1013.8 1013.7 0.4
18/04:00pm 18.2 10.3 9.5 57 4.6 SW 41 52 22 28 1013.5 1013.4 0.4
18/03:30pm 18.3 10.6 10.2 59 4.3 SSW 41 50 22 27 1013.0 1012.9 0.4
18/03:00pm 18.8 11.0 9.8 56 4.8 SW 41 50 22 27 1012.8 1012.7 0.4
18/02:30pm 18.4 10.5 9.2 55 4.8 SW 41 54 22 29 1012.4 1012.3 0.4
18/02:00pm 17.9 10.6 11.7 67 3.4 SSW 41 52 22 28 1012.4 1012.3 0.4
18/01:30pm 18.9 11.9 11.2 61 4.2 SW 39 50 21 27 1012.1 1012.0 0.4
18/01:00pm 19.1 13.0 11.7 62 4.1 SW 35 50 19 27 1012.0 1011.9 0.4
18/12:30pm 19.0 11.8 10.6 58 4.5 SW 39 54 21 29 1011.8 1011.7 0.4
18/12:00pm 18.7 13.3 12.7 68 3.4 SW 33 43 18 23 1011.8 1011.7 0.4
18/11:30am 18.1 12.5 13.4 74 2.7 SW 35 46 19 25 1011.4 1011.3 0.4
18/11:10am 17.8 12.0 11.4 66 3.5 SW 33 54 18 29 1011.2 1011.1 0.2
18/11:00am 17.2 13.2 12.9 76 2.4 WSW 26 39 14 21 1011.2 1011.1 0.2
18/10:37am 16.0 9.6 12.0 77 2.2 WSW 37 57 20 31 1011.1 1011.0 0.2
18/10:30am 16.0 9.6 13.3 84 1.5 WSW 39 50 21 27 1011.1 1011.0 0.2
18/10:10am 18.9 13.3 12.2 65 3.7 SW 33 61 18 33 1010.3 1010.2 0.0
18/10:00am 19.4 13.5 10.4 56 4.9 WSW 32 48 17 26 1010.6 1010.5 0.0
18/09:39am 19.1 12.8 9.6 54 5.0 WSW 33 54 18 29 1010.2 1010.1 0.0
18/09:30am 19.9 14.3 10.3 54 5.2 W 30 43 16 23 1010.2 1010.1 0.0
18/09:00am 18.6 12.9 11.2 62 4.0 WNW 32 39 17 21 1009.8 1009.7 0.0
18/08:30am 17.7 12.6 10.6 63 3.8 WNW 28 37 15 20 1009.7 1009.6 0.0
18/08:00am 17.0 12.5 11.3 69 3.1 WNW 26 35 14 19 1009.4 1009.3 0.0
18/07:30am 16.8 12.3 11.5 71 2.9 WNW 26 35 14 19 1009.3 1009.2 0.0
18/07:00am 15.7 12.0 11.5 76 2.3 WNW 22 28 12 15 1008.9 1008.8 0.0
18/06:30am 14.7 10.9 11.1 79 1.9 WNW 22 24 12 13 1008.7 1008.6 0.0
18/06:00am 14.0 10.5 11.0 82 1.6 WNW 20 24 11 13 1008.4 1008.3 0.0
18/05:30am 13.6 9.3 10.6 82 1.6 NW 24 26 13 14 1008.1 1008.0 0.0
18/05:00am 13.5 10.0 10.3 81 1.7 NW 19 20 10 11 1007.9 1007.8 0.0
18/04:30am 13.4 9.7 10.0 80 1.8 NW 20 22 11 12 1007.7 1007.6 0.0
18/04:00am 13.3 9.1 9.9 80 1.8 NW 22 24 12 13 1007.4 1007.3 0.0
18/03:30am 13.6 9.4 9.6 77 2.1 WNW 22 24 12 13 1007.5 1007.4 0.0
18/03:00am 13.5 9.2 9.4 76 2.1 WNW 22 24 12 13 1007.5 1007.4 0.0
18/02:30am 13.3 9.2 8.8 74 2.3 NW 20 22 11 12 1007.8 1007.7 0.0
18/02:00am 13.6 9.1 8.7 72 2.5 WNW 22 24 12 13 1007.7 1007.6 0.0
18/01:30am 13.9 9.3 8.3 69 2.8 WNW 22 24 12 13 1007.8 1007.7 0.0
18/01:00am 14.1 9.8 7.9 66 3.1 WNW 20 22 11 12 1008.0 1007.9 0.0
18/12:30am 14.6 10.9 8.1 65 3.3 WNW 17 19 9 10 1008.3 1008.2 0.0
18/12:00am 14.8 11.7 9.0 68 3.0 WNW 15 17 8 9 1008.7 1008.6 0.0
 
Date/Time
CDT
Temp
°C
App
Temp
°C
Dew
Point
Rel
Hum
%
Delta-T
°C
Wind Press
QNH
hPa
Press
MSL
hPa
Rain
since 9 am
mm
Dir
 
Spd
km/h
Gust
km/h
Spd
kts
Gust
kts
17/11:30pm 14.8 12.7 9.6 71 2.7 WNW 11 13 6 7 1008.8 1008.7 0.0
17/11:00pm 15.0 13.6 9.6 70 2.8 W 7 9 4 5 1009.0 1008.9 0.0
17/10:30pm 15.0 13.6 9.6 70 2.8 WSW 7 7 4 4 1009.0 1008.9 0.0
17/10:00pm 15.2 13.9 10.0 71 2.7 WSW 7 7 4 4 1008.9 1008.8 0.0
17/09:30pm 15.9 13.6 10.4 70 2.9 SW 13 17 7 9 1008.9 1008.8 0.0
17/09:00pm 16.1 13.1 10.8 71 2.8 SSW 17 20 9 11 1008.7 1008.6 0.0
17/08:30pm 16.3 14.4 10.6 69 3.0 S 11 17 6 9 1008.6 1008.5 0.0
17/08:00pm 16.2 13.2 9.4 64 3.5 S 15 20 8 11 1008.5 1008.4 0.0
17/07:30pm 16.3 13.9 8.8 61 3.9 S 11 19 6 10 1008.5 1008.4 0.0
17/07:00pm 17.0 14.1 8.2 56 4.5 S 13 17 7 9 1008.2 1008.1 0.0
17/06:30pm 17.2 14.0 8.4 56 4.5 S 15 20 8 11 1008.3 1008.2 0.0
17/06:00pm 17.1 14.7 8.5 57 4.4 S 11 17 6 9 1008.3 1008.2 0.0
17/05:30pm 17.1 14.8 9.0 59 4.2 S 11 15 6 8 1008.4 1008.3 0.0
17/05:00pm 17.6 15.4 9.2 58 4.4 S 11 15 6 8 1008.6 1008.5 0.0
17/04:30pm 16.9 14.4 9.6 62 3.8 S 13 19 7 10 1008.9 1008.8 0.0
17/04:00pm 17.6 14.3 9.5 59 4.3 S 17 20 9 11 1008.7 1008.6 0.0
17/03:30pm 16.9 13.5 9.3 61 4.0 S 17 24 9 13 1008.9 1008.8 0.0
17/03:00pm 17.0 13.7 9.7 62 3.8 S 17 22 9 12 1008.9 1008.8 0.0
17/02:30pm 18.2 15.7 9.8 58 4.5 S 13 19 7 10 1009.3 1009.2 0.0

Other Formats:

Comma delimited format used in spreadsheet applications
http://www.bom.gov.au/fwo/IDS60801/IDS60801.94822.axf

JavaScript Object Notation format (JSON) in row-major order
http://www.bom.gov.au/fwo/IDS60801/IDS60801.94822.json